createdAt,value
2019-03-25T00:00:54.630Z,101437.76
2019-03-25T00:03:28.195Z,101434.06
2019-03-25T00:06:01.637Z,101436.86
2019-03-25T00:08:35.067Z,101437.50
2019-03-25T00:11:08.580Z,101438.03
2019-03-25T00:13:42.038Z,101435.92
2019-03-25T00:16:15.449Z,101435.28
2019-03-25T00:18:48.793Z,101445.77
2019-03-25T00:21:24.167Z,101438.16
2019-03-25T00:23:57.281Z,101435.80
2019-03-25T00:26:30.663Z,101431.38
2019-03-25T00:29:04.076Z,101428.88
2019-03-25T00:31:37.502Z,101426.19
2019-03-25T00:34:10.823Z,101428.31
2019-03-25T00:36:44.330Z,101422.83
2019-03-25T00:39:17.621Z,101421.08
2019-03-25T00:41:50.979Z,101417.95
2019-03-25T00:44:24.320Z,101414.80
2019-03-25T00:46:57.694Z,101415.05
2019-03-25T00:49:31.063Z,101411.13
2019-03-25T00:52:04.521Z,101418.83
2019-03-25T00:54:49.334Z,101415.25
2019-03-25T00:57:13.035Z,101410.95
2019-03-25T00:59:48.811Z,101414.59
2019-03-25T01:02:21.468Z,101413.77
2019-03-25T01:04:54.839Z,101417.68
2019-03-25T01:07:28.269Z,101412.42
2019-03-25T01:10:01.613Z,101414.11
2019-03-25T01:12:34.949Z,101415.02
2019-03-25T01:15:08.622Z,101416.43
2019-03-25T01:17:41.986Z,101415.55
2019-03-25T01:20:16.886Z,101415.03
2019-03-25T01:22:50.368Z,101406.55
2019-03-25T01:25:23.720Z,101400.78
2019-03-25T01:27:57.075Z,101408.80
2019-03-25T01:30:30.407Z,101417.17
2019-03-25T01:33:03.766Z,101419.73
2019-03-25T01:35:37.085Z,101419.98
2019-03-25T01:38:10.447Z,101422.44
2019-03-25T01:40:43.940Z,101419.06
2019-03-25T01:43:17.290Z,101411.28
2019-03-25T01:45:50.700Z,101406.51
2019-03-25T01:48:24.032Z,101410.70
2019-03-25T01:50:57.385Z,101407.67
2019-03-25T01:53:30.824Z,101406.95
2019-03-25T01:56:04.216Z,101401.86
2019-03-25T01:58:37.566Z,101395.87
2019-03-25T02:01:10.974Z,101388.17
2019-03-25T02:03:44.395Z,101381.02
2019-03-25T02:06:17.730Z,101382.39
2019-03-25T02:08:51.145Z,101381.20
2019-03-25T02:11:24.476Z,101387.98
2019-03-25T02:13:57.835Z,101386.76
2019-03-25T02:16:31.183Z,101380.52
2019-03-25T02:19:04.609Z,101378.95
2019-03-25T02:21:37.954Z,101374.76
2019-03-25T02:24:11.481Z,101376.16
2019-03-25T02:26:44.820Z,101373.59
2019-03-25T02:29:18.256Z,101373.22
2019-03-25T02:31:51.593Z,101373.43
2019-03-25T02:34:24.957Z,101368.75
2019-03-25T02:36:58.389Z,101370.22
2019-03-25T02:39:31.776Z,101369.47
2019-03-25T02:42:05.176Z,101368.59
2019-03-25T02:44:38.544Z,101366.88
2019-03-25T02:47:11.911Z,101360.16
2019-03-25T02:49:48.077Z,101363.75
2019-03-25T02:52:21.431Z,101377.03
2019-03-25T02:54:54.767Z,101372.48
2019-03-25T02:57:28.139Z,101373.00
2019-03-25T03:00:01.586Z,101375.97
2019-03-25T03:02:34.878Z,101368.79
2019-03-25T03:05:08.276Z,101363.31
2019-03-25T03:07:41.711Z,101374.78
2019-03-25T03:10:15.798Z,101375.34
2019-03-25T03:12:49.162Z,101370.86
2019-03-25T03:15:22.532Z,101364.83
2019-03-25T03:17:56.254Z,101363.09
2019-03-25T03:20:29.666Z,101367.08
2019-03-25T03:23:03.088Z,101365.68
2019-03-25T03:25:36.417Z,101359.95
2019-03-25T03:28:09.789Z,101357.80
2019-03-25T03:30:43.201Z,101363.48
2019-03-25T03:33:16.610Z,101358.41
2019-03-25T03:35:50.026Z,101362.83
2019-03-25T03:38:23.490Z,101356.42
2019-03-25T03:40:56.891Z,101351.82
2019-03-25T03:43:30.279Z,101353.63
2019-03-25T03:46:03.846Z,101344.63
2019-03-25T03:48:37.275Z,101333.81
2019-03-25T03:51:10.685Z,101328.47
2019-03-25T03:53:44.059Z,101325.53
2019-03-25T03:56:17.790Z,101326.31
2019-03-25T03:58:51.203Z,101325.95
2019-03-25T04:01:24.618Z,101329.91
2019-03-25T04:03:57.975Z,101333.47
2019-03-25T04:06:31.317Z,101335.36
2019-03-25T04:09:06.173Z,101334.76
2019-03-25T04:11:39.525Z,101329.45
2019-03-25T04:14:12.951Z,101331.53
2019-03-25T04:16:46.278Z,101332.66
2019-03-25T04:19:19.629Z,101325.00
2019-03-25T04:21:52.972Z,101329.53
2019-03-25T04:24:26.310Z,101324.51
2019-03-25T04:26:59.664Z,101317.00
2019-03-25T04:29:33.014Z,101321.98
2019-03-25T04:32:06.466Z,101324.01
2019-03-25T04:34:39.794Z,101318.27
2019-03-25T04:37:13.130Z,101319.30
2019-03-25T04:39:46.491Z,101312.95
2019-03-25T04:42:19.874Z,101310.61
2019-03-25T04:44:53.302Z,101305.64
2019-03-25T04:47:26.624Z,101313.10
2019-03-25T04:49:59.977Z,101315.45
2019-03-25T04:52:33.327Z,101308.70
2019-03-25T04:55:07.921Z,101312.69
2019-03-25T04:57:41.341Z,101310.84
2019-03-25T05:00:15.148Z,101311.18
2019-03-25T05:02:48.560Z,101301.75
2019-03-25T05:05:21.926Z,101303.78
2019-03-25T05:07:55.376Z,101300.14
2019-03-25T05:10:31.775Z,101302.02
2019-03-25T05:13:05.654Z,101295.66
2019-03-25T05:15:38.986Z,101304.20
2019-03-25T05:18:12.401Z,101286.90
2019-03-25T05:20:45.742Z,101274.41
2019-03-25T05:23:19.071Z,101282.17
2019-03-25T05:25:52.442Z,101290.08
2019-03-25T05:28:25.793Z,101289.70
2019-03-25T05:30:59.226Z,101281.42
2019-03-25T05:33:32.560Z,101279.38
2019-03-25T05:36:05.993Z,101281.08
2019-03-25T05:38:39.397Z,101280.97
2019-03-25T05:41:12.756Z,101279.75
2019-03-25T05:43:46.084Z,101277.44
2019-03-25T05:46:19.496Z,101271.57
2019-03-25T05:48:52.899Z,101269.45
2019-03-25T05:51:26.259Z,101267.25
2019-03-25T05:53:59.596Z,101266.80
2019-03-25T05:56:33.047Z,101270.13
2019-03-25T05:59:06.451Z,101274.72
2019-03-25T06:01:39.811Z,101280.02
2019-03-25T06:04:13.229Z,101285.78
2019-03-25T06:06:46.588Z,101276.12
2019-03-25T06:09:19.918Z,101282.04
2019-03-25T06:11:53.288Z,101273.53
2019-03-25T06:14:26.709Z,101271.21
2019-03-25T06:17:00.133Z,101270.23
2019-03-25T06:19:33.557Z,101271.00
2019-03-25T06:22:06.987Z,101266.87
2019-03-25T06:24:40.345Z,101258.64
2019-03-25T06:27:14.622Z,101261.92
2019-03-25T06:29:48.057Z,101274.52
2019-03-25T06:32:21.393Z,101264.02
2019-03-25T06:34:54.858Z,101260.63
2019-03-25T06:37:28.269Z,101271.95
2019-03-25T06:40:01.616Z,101269.84
2019-03-25T06:42:34.936Z,101267.06
2019-03-25T06:45:08.742Z,101268.84
2019-03-25T06:47:42.198Z,101258.78
2019-03-25T06:50:15.642Z,101255.64
2019-03-25T06:52:49.110Z,101260.45
2019-03-25T06:55:22.535Z,101254.48
2019-03-25T06:57:55.863Z,101255.00
2019-03-25T07:00:30.236Z,101248.67
2019-03-25T07:03:03.773Z,101242.70
2019-03-25T07:05:37.401Z,101242.71
2019-03-25T07:08:10.832Z,101240.55
2019-03-25T07:10:44.269Z,101231.99
2019-03-25T07:13:17.696Z,101237.18
2019-03-25T07:15:51.126Z,101249.45
2019-03-25T07:18:24.531Z,101251.67
2019-03-25T07:20:57.881Z,101241.66
2019-03-25T07:23:31.212Z,101241.16
2019-03-25T07:26:04.741Z,101241.22
2019-03-25T07:28:38.807Z,101250.42
2019-03-25T07:31:12.281Z,101255.84
2019-03-25T07:33:45.614Z,101261.01
2019-03-25T07:36:19.269Z,101251.64
2019-03-25T07:38:52.697Z,101249.20
2019-03-25T07:41:26.052Z,101253.28
2019-03-25T07:43:59.464Z,101253.39
2019-03-25T07:46:32.798Z,101250.45
2019-03-25T07:49:06.253Z,101248.69
2019-03-25T07:51:39.661Z,101249.09
2019-03-25T07:54:13.077Z,101249.90
2019-03-25T07:56:46.520Z,101264.77
2019-03-25T07:59:20.286Z,101262.16
2019-03-25T08:01:53.783Z,101262.16
2019-03-25T08:04:26.941Z,101269.14
2019-03-25T08:07:00.291Z,101271.80
2019-03-25T08:09:33.747Z,101264.44
2019-03-25T08:12:07.140Z,101267.09
2019-03-25T08:14:40.518Z,101265.38
2019-03-25T08:17:13.990Z,101275.39
2019-03-25T08:19:47.364Z,101271.38
2019-03-25T08:22:20.789Z,101275.77
2019-03-25T08:24:54.313Z,101275.30
2019-03-25T08:27:27.770Z,101276.59
2019-03-25T08:30:01.180Z,101276.23
2019-03-25T08:32:34.618Z,101278.47
2019-03-25T08:35:08.112Z,101275.34
2019-03-25T08:37:41.598Z,101275.86
2019-03-25T08:40:15.119Z,101278.05
2019-03-25T08:42:48.512Z,101277.59
2019-03-25T08:45:21.943Z,101289.38
2019-03-25T08:47:55.341Z,101298.15
2019-03-25T08:50:28.769Z,101297.30
2019-03-25T08:53:02.246Z,101302.11
2019-03-25T08:55:35.700Z,101311.67
2019-03-25T08:58:12.247Z,101313.90
2019-03-25T09:00:44.157Z,101312.46
2019-03-25T09:03:17.487Z,101320.72
2019-03-25T09:05:50.907Z,101321.92
2019-03-25T09:08:24.225Z,101322.72
2019-03-25T09:10:57.647Z,101340.21
2019-03-25T09:13:30.959Z,101327.61
2019-03-25T09:16:04.379Z,101317.22
2019-03-25T09:18:37.709Z,101321.05
2019-03-25T09:21:11.117Z,101321.13
2019-03-25T09:23:44.491Z,101311.58
2019-03-25T09:26:17.923Z,101324.13
2019-03-25T09:28:51.344Z,101323.23
2019-03-25T09:31:36.151Z,101319.41
2019-03-25T09:33:59.944Z,101321.78
2019-03-25T09:36:33.353Z,101319.27
2019-03-25T09:39:07.590Z,101317.95
2019-03-25T09:41:40.931Z,101318.47
2019-03-25T09:44:14.265Z,101312.51
2019-03-25T09:46:47.843Z,101318.66
2019-03-25T09:49:21.188Z,101306.30
2019-03-25T09:51:54.637Z,101314.91
2019-03-25T09:54:28.049Z,101317.73
2019-03-25T09:57:01.546Z,101316.64
2019-03-25T09:59:34.938Z,101310.47
2019-03-25T10:02:08.368Z,101309.41
2019-03-25T10:04:41.804Z,101312.31
2019-03-25T10:07:23.016Z,101304.05
2019-03-25T10:09:56.422Z,101288.03
2019-03-25T10:12:29.805Z,101287.09
2019-03-25T10:15:03.277Z,101290.12
2019-03-25T10:17:36.755Z,101285.73
2019-03-25T10:20:11.033Z,101288.39
2019-03-25T10:22:44.450Z,101283.67
2019-03-25T10:25:17.775Z,101281.55
2019-03-25T10:27:51.212Z,101265.84
2019-03-25T10:30:24.704Z,101272.83
2019-03-25T10:32:58.121Z,101261.02
2019-03-25T10:35:31.599Z,101257.10
2019-03-25T10:38:05.119Z,101257.09
2019-03-25T10:40:38.525Z,101248.38
2019-03-25T10:43:11.985Z,101250.06
2019-03-25T10:45:45.396Z,101242.52
2019-03-25T10:48:18.839Z,101241.13
2019-03-25T10:50:52.245Z,101237.70
2019-03-25T10:53:25.589Z,101230.77
2019-03-25T10:55:58.913Z,101238.02
2019-03-25T10:58:32.352Z,101230.18
2019-03-25T11:01:06.244Z,101226.69
2019-03-25T11:03:39.743Z,101231.86
2019-03-25T11:06:13.187Z,101218.24
2019-03-25T11:08:46.546Z,101231.92
2019-03-25T11:11:19.955Z,101232.38
2019-03-25T11:13:53.387Z,101225.00
2019-03-25T11:16:26.793Z,101227.44
2019-03-25T11:19:00.141Z,101234.59
2019-03-25T11:21:33.562Z,101227.59
2019-03-25T11:24:07.016Z,101223.09
2019-03-25T11:26:40.348Z,101223.55
2019-03-25T11:29:13.809Z,101226.06
2019-03-25T11:31:47.156Z,101217.47
2019-03-25T11:34:20.598Z,101223.58
2019-03-25T11:36:54.035Z,101223.28
2019-03-25T11:39:27.387Z,101225.95
2019-03-25T11:42:00.800Z,101237.69
2019-03-25T11:44:34.243Z,101232.89
2019-03-25T11:47:07.636Z,101218.50
2019-03-25T11:49:41.099Z,101221.03
2019-03-25T11:52:14.755Z,101222.61
2019-03-25T11:54:48.195Z,101210.80
2019-03-25T11:57:21.563Z,101210.59
2019-03-25T11:59:55.451Z,101207.75
2019-03-25T12:02:28.816Z,101202.48
2019-03-25T12:05:02.302Z,101211.52
2019-03-25T12:07:35.834Z,101214.75
2019-03-25T12:10:09.183Z,101229.73
2019-03-25T12:12:42.544Z,101245.62
2019-03-25T12:15:15.974Z,101232.09
2019-03-25T12:17:49.444Z,101237.70
2019-03-25T12:20:22.752Z,101232.59
2019-03-25T12:22:56.171Z,101232.45
2019-03-25T12:25:29.564Z,101231.61
2019-03-25T12:28:03.045Z,101225.05
2019-03-25T12:30:36.526Z,101238.55
2019-03-25T12:33:09.887Z,101233.77
2019-03-25T12:35:43.349Z,101235.62
2019-03-25T12:38:16.762Z,101243.47
2019-03-25T12:40:50.103Z,101221.22
2019-03-25T12:43:23.536Z,101272.38
2019-03-25T12:45:57.003Z,101278.16
2019-03-25T12:48:30.417Z,101303.51
2019-03-25T12:51:04.781Z,101291.92
2019-03-25T12:53:38.210Z,101283.59
2019-03-25T12:56:11.639Z,101279.38
2019-03-25T12:58:45.063Z,101283.66
2019-03-25T13:01:18.475Z,101291.45
2019-03-25T13:03:51.907Z,101289.81
2019-03-25T13:06:25.377Z,101286.32
2019-03-25T13:09:00.161Z,101272.70
2019-03-25T13:11:33.618Z,101265.83
2019-03-25T13:14:07.050Z,101266.70
2019-03-25T13:16:40.373Z,101279.80
2019-03-25T13:19:13.808Z,101287.97
2019-03-25T13:21:47.298Z,101286.30
2019-03-25T13:24:20.722Z,101305.98
2019-03-25T13:26:54.088Z,101303.78
2019-03-25T13:29:27.458Z,101297.55
2019-03-25T13:32:00.834Z,101289.28
2019-03-25T13:34:34.198Z,101284.40
2019-03-25T13:37:07.541Z,101288.91
2019-03-25T13:39:40.964Z,101292.83
2019-03-25T13:42:14.373Z,101304.20
2019-03-25T13:44:47.817Z,101300.30
2019-03-25T13:47:21.251Z,101302.49
2019-03-25T13:49:54.769Z,101299.01
2019-03-25T13:52:28.236Z,101293.77
2019-03-25T13:55:01.638Z,101295.95
2019-03-25T13:57:35.058Z,101287.68
2019-03-25T14:00:09.369Z,101273.68
2019-03-25T14:02:42.712Z,101271.86
2019-03-25T14:05:16.212Z,101260.41
2019-03-25T14:07:49.615Z,101250.47
2019-03-25T14:10:23.058Z,101258.06
2019-03-25T14:12:56.395Z,101254.26
2019-03-25T14:15:29.834Z,101246.61
2019-03-25T14:18:03.413Z,101249.89
2019-03-25T14:20:36.908Z,101279.02
2019-03-25T14:23:10.242Z,101245.45
2019-03-25T14:25:43.601Z,101255.64
2019-03-25T14:28:17.049Z,101246.08
2019-03-25T14:30:50.479Z,101245.22
2019-03-25T14:33:23.983Z,101233.05
2019-03-25T14:35:57.388Z,101250.03
2019-03-25T14:38:30.754Z,101259.06
2019-03-25T14:41:04.210Z,101256.06
2019-03-25T14:43:37.557Z,101273.22
2019-03-25T14:46:10.994Z,101298.09
2019-03-25T14:48:44.419Z,101335.35
2019-03-25T14:51:17.962Z,101348.87
2019-03-25T14:53:51.434Z,101353.09
2019-03-25T14:56:24.839Z,101337.39
2019-03-25T14:58:58.182Z,101340.83
2019-03-25T15:01:31.600Z,101332.45
2019-03-25T15:04:05.030Z,101343.50
2019-03-25T15:06:38.466Z,101341.97
2019-03-25T15:09:11.812Z,101345.84
2019-03-25T15:11:45.212Z,101339.53
2019-03-25T15:14:18.699Z,101342.47
2019-03-25T15:16:52.052Z,101342.12
2019-03-25T15:19:25.425Z,101348.79
2019-03-25T15:21:58.765Z,101345.80
2019-03-25T15:24:32.184Z,101350.27
2019-03-25T15:27:05.522Z,101352.05
2019-03-25T15:29:38.942Z,101353.91
2019-03-25T15:32:12.352Z,101350.53
2019-03-25T15:34:45.731Z,101351.36
2019-03-25T15:37:19.099Z,101357.47
2019-03-25T15:39:52.585Z,101354.89
2019-03-25T15:42:26.074Z,101361.84
2019-03-25T15:44:59.459Z,101353.92
2019-03-25T15:47:32.951Z,101357.03
2019-03-25T15:50:08.953Z,101358.81
2019-03-25T15:52:42.493Z,101354.42
2019-03-25T15:55:16.024Z,101361.48
2019-03-25T15:57:49.445Z,101357.06
2019-03-25T16:00:23.259Z,101351.43
2019-03-25T16:02:56.718Z,101353.62
2019-03-25T16:05:30.064Z,101356.22
2019-03-25T16:08:03.561Z,101367.12
2019-03-25T16:10:36.983Z,101357.03
2019-03-25T16:13:10.558Z,101358.42
2019-03-25T16:15:44.095Z,101359.30
2019-03-25T16:18:38.143Z,101357.56
2019-03-25T16:21:11.855Z,101361.48
2019-03-25T16:23:45.328Z,101354.86
2019-03-25T16:26:18.676Z,101379.57
2019-03-25T16:28:52.101Z,101375.55
2019-03-25T16:31:25.452Z,101384.19
2019-03-25T16:33:58.807Z,101387.69
2019-03-25T16:36:32.189Z,101398.08
2019-03-25T16:39:07.544Z,101390.23
2019-03-25T16:41:40.972Z,101389.78
2019-03-25T16:44:14.316Z,101388.50
2019-03-25T16:46:47.743Z,101389.28
2019-03-25T16:49:21.218Z,101384.48
2019-03-25T16:51:54.676Z,101387.98
2019-03-25T16:54:28.025Z,101385.79
2019-03-25T16:57:01.395Z,101390.59
2019-03-25T16:59:34.721Z,101404.55
2019-03-25T17:02:08.173Z,101401.02
2019-03-25T17:04:41.514Z,101397.94
2019-03-25T17:07:14.956Z,101408.39
2019-03-25T17:09:48.291Z,101411.44
2019-03-25T17:12:21.745Z,101404.40
2019-03-25T17:14:55.216Z,101403.09
2019-03-25T17:17:28.660Z,101410.97
2019-03-25T17:20:02.071Z,101410.51
2019-03-25T17:22:35.744Z,101410.47
2019-03-25T17:25:09.235Z,101409.62
2019-03-25T17:27:42.705Z,101413.12
2019-03-25T17:30:17.934Z,101416.58
2019-03-25T17:32:51.345Z,101418.73
2019-03-25T17:35:24.682Z,101428.77
2019-03-25T17:37:58.120Z,101423.49
2019-03-25T17:40:31.570Z,101418.69
2019-03-25T17:43:05.120Z,101432.64
2019-03-25T17:45:48.003Z,101431.38
2019-03-25T17:48:21.379Z,101433.02
2019-03-25T17:50:54.734Z,101437.83
2019-03-25T17:53:29.061Z,101449.97
2019-03-25T17:56:02.428Z,101444.50
2019-03-25T17:58:35.790Z,101455.17
2019-03-25T18:01:10.880Z,101458.52
2019-03-25T18:03:44.333Z,101472.45
2019-03-25T18:06:17.656Z,101477.57
2019-03-25T18:08:51.012Z,101487.09
2019-03-25T18:11:24.539Z,101488.38
2019-03-25T18:13:57.899Z,101490.43
2019-03-25T18:16:31.289Z,101498.54
2019-03-25T18:19:05.210Z,101503.28
2019-03-25T18:21:38.579Z,101498.98
2019-03-25T18:24:12.000Z,101508.56
2019-03-25T18:26:45.428Z,101516.31
2019-03-25T18:29:18.909Z,101519.20
2019-03-25T18:31:52.345Z,101527.87
2019-03-25T18:34:29.098Z,101541.34
2019-03-25T18:37:02.642Z,101549.11
2019-03-25T18:39:35.994Z,101550.52
2019-03-25T18:42:09.480Z,101559.58
2019-03-25T18:44:42.836Z,101567.23
2019-03-25T18:47:16.264Z,101571.61
2019-03-25T18:49:49.705Z,101585.60
2019-03-25T18:52:23.134Z,101586.16
2019-03-25T18:54:56.595Z,101582.69
2019-03-25T18:57:30.103Z,101586.42
2019-03-25T19:00:05.518Z,101589.94
2019-03-25T19:02:38.947Z,101579.92
2019-03-25T19:05:12.531Z,101572.31
2019-03-25T19:07:46.209Z,101575.36
2019-03-25T19:10:27.393Z,101584.19
2019-03-25T19:13:00.806Z,101590.02
2019-03-25T19:15:34.426Z,101601.73
2019-03-25T19:18:07.859Z,101606.95
2019-03-25T19:20:41.276Z,101606.37
2019-03-25T19:23:14.799Z,101608.67
2019-03-25T19:25:48.251Z,101608.97
2019-03-25T19:28:21.725Z,101614.66
2019-03-25T19:30:55.236Z,101622.09
2019-03-25T19:33:28.687Z,101624.26
2019-03-25T19:36:02.258Z,101634.98
2019-03-25T19:38:35.705Z,101636.91
2019-03-25T19:41:09.198Z,101636.08
2019-03-25T19:43:42.610Z,101637.10
2019-03-25T19:46:16.068Z,101639.25
2019-03-25T19:48:49.521Z,101636.22
2019-03-25T19:51:23.092Z,101646.15
2019-03-25T19:53:56.436Z,101643.16
2019-03-25T19:56:29.924Z,101651.71
2019-03-25T19:59:03.335Z,101657.08
2019-03-25T20:01:36.866Z,101656.06
2019-03-25T20:04:10.222Z,101664.25
2019-03-25T20:06:43.585Z,101670.95
2019-03-25T20:09:17.043Z,101664.81
2019-03-25T20:11:50.456Z,101679.27
2019-03-25T20:14:23.806Z,101683.58
2019-03-25T20:16:57.231Z,101691.44
2019-03-25T20:19:30.793Z,101698.19
2019-03-25T20:22:04.386Z,101703.39
2019-03-25T20:24:38.421Z,101706.77
2019-03-25T20:27:11.862Z,101719.24
2019-03-25T20:29:45.267Z,101716.20
2019-03-25T20:32:30.966Z,101723.14
2019-03-25T20:34:53.908Z,101726.78
2019-03-25T20:37:27.378Z,101727.52
2019-03-25T20:40:00.867Z,101733.23
2019-03-25T20:42:34.353Z,101734.97
2019-03-25T20:45:09.266Z,101733.13
2019-03-25T20:47:42.837Z,101743.00
2019-03-25T20:50:16.352Z,101742.02
2019-03-25T20:52:49.827Z,101744.99
2019-03-25T20:55:24.262Z,101744.55
2019-03-25T20:57:57.904Z,101752.06
2019-03-25T21:00:48.758Z,101748.70
2019-03-25T21:03:22.379Z,101748.15
2019-03-25T21:05:55.839Z,101749.54
2019-03-25T21:08:29.318Z,101748.42
2019-03-25T21:11:02.715Z,101749.02
2019-03-25T21:13:36.119Z,101748.54
2019-03-25T21:16:09.654Z,101755.02
2019-03-25T21:18:43.098Z,101760.52
2019-03-25T21:21:16.574Z,101770.36
2019-03-25T21:23:49.994Z,101772.92
2019-03-25T21:26:23.340Z,101776.03
2019-03-25T21:28:56.851Z,101778.16
2019-03-25T21:31:30.332Z,101780.38
2019-03-25T21:34:03.782Z,101783.90
2019-03-25T21:36:37.272Z,101789.20
2019-03-25T21:39:10.694Z,101796.91
2019-03-25T21:41:44.250Z,101797.92
2019-03-25T21:44:17.749Z,101799.60
2019-03-25T21:46:51.132Z,101809.13
2019-03-25T21:49:24.541Z,101809.89
2019-03-25T21:51:58.118Z,101816.27
2019-03-25T21:54:31.596Z,101816.17
2019-03-25T21:57:05.075Z,101816.17
2019-03-25T21:59:38.537Z,101823.72
2019-03-25T22:02:12.079Z,101819.41
2019-03-25T22:04:45.409Z,101822.92
2019-03-25T22:07:18.900Z,101818.67
2019-03-25T22:09:52.306Z,101825.39
2019-03-25T22:12:25.732Z,101825.78
2019-03-25T22:14:59.131Z,101834.47
2019-03-25T22:17:32.590Z,101828.50
2019-03-25T22:20:08.503Z,101833.64
2019-03-25T22:22:41.964Z,101835.84
2019-03-25T22:25:15.431Z,101835.96
2019-03-25T22:27:48.786Z,101831.96
2019-03-25T22:30:22.202Z,101834.53
2019-03-25T22:32:55.737Z,101832.91
2019-03-25T22:35:29.104Z,101836.70
2019-03-25T22:38:02.550Z,101837.39
2019-03-25T22:40:35.950Z,101840.59
2019-03-25T22:43:09.483Z,101851.86
2019-03-25T22:45:42.902Z,101850.84
2019-03-25T22:48:16.356Z,101852.97
2019-03-25T22:50:49.771Z,101854.71
2019-03-25T22:53:23.211Z,101850.27
2019-03-25T22:55:56.546Z,101857.11
2019-03-25T22:58:29.931Z,101857.43
2019-03-25T23:01:03.588Z,101861.61
2019-03-25T23:03:39.375Z,101857.58
2019-03-25T23:06:12.143Z,101865.03
2019-03-25T23:08:45.612Z,101870.58
2019-03-25T23:11:19.099Z,101873.07
2019-03-25T23:13:52.539Z,101878.61
2019-03-25T23:16:25.888Z,101873.10
2019-03-25T23:18:59.346Z,101875.97
2019-03-25T23:21:32.689Z,101882.88
2019-03-25T23:24:06.140Z,101887.35
2019-03-25T23:26:39.492Z,101894.70
2019-03-25T23:29:12.878Z,101895.59
2019-03-25T23:31:46.231Z,101903.42
2019-03-25T23:34:19.631Z,101895.77
2019-03-25T23:36:52.955Z,101898.85
2019-03-25T23:39:26.411Z,101896.50
2019-03-25T23:41:59.759Z,101899.17
2019-03-25T23:44:33.146Z,101903.11
2019-03-25T23:47:06.555Z,101903.11
2019-03-25T23:49:39.903Z,101903.66
2019-03-25T23:52:13.313Z,101909.71
2019-03-25T23:54:46.668Z,101914.47
2019-03-25T23:57:20.084Z,101914.54
2019-03-25T23:59:53.470Z,101915.02
